createdAt,value
2018-02-20T00:01:36.083Z,26.70
2018-02-20T00:04:07.233Z,26.70
2018-02-20T00:06:37.626Z,26.70
2018-02-20T00:09:08.054Z,26.80
2018-02-20T00:11:38.972Z,26.80
2018-02-20T00:14:09.418Z,26.80
2018-02-20T00:16:39.868Z,26.80
2018-02-20T00:19:11.203Z,26.90
2018-02-20T00:21:42.478Z,26.90
2018-02-20T00:24:13.174Z,26.90
2018-02-20T00:26:43.599Z,27.00
2018-02-20T00:29:14.353Z,27.10
2018-02-20T00:31:45.515Z,27.30
2018-02-20T00:34:15.932Z,27.30
2018-02-20T00:36:46.360Z,27.50
2018-02-20T00:39:16.878Z,27.70
2018-02-20T00:41:48.413Z,28.00
2018-02-20T00:44:18.846Z,28.00
2018-02-20T00:46:50.404Z,28.30
2018-02-20T00:49:21.638Z,28.40
2018-02-20T00:51:52.080Z,28.40
2018-02-20T00:54:23.219Z,28.60
2018-02-20T00:56:53.731Z,28.50
2018-02-20T00:59:24.381Z,28.60
2018-02-20T01:01:55.624Z,28.60
2018-02-20T01:04:26.847Z,28.70
2018-02-20T01:06:57.236Z,28.70
2018-02-20T01:09:27.663Z,28.70
2018-02-20T01:11:58.669Z,28.70
2018-02-20T01:14:29.892Z,28.80
2018-02-20T01:17:00.778Z,28.80
2018-02-20T01:19:31.246Z,28.80
2018-02-20T01:22:01.651Z,28.80
2018-02-20T01:24:32.079Z,28.70
2018-02-20T01:27:02.494Z,28.70
2018-02-20T01:29:33.115Z,28.70
2018-02-20T01:32:03.571Z,28.70
2018-02-20T01:34:33.954Z,28.70
2018-02-20T01:37:04.397Z,28.70
2018-02-20T01:39:34.870Z,28.80
2018-02-20T01:42:05.597Z,28.80
2018-02-20T01:44:36.090Z,28.80
2018-02-20T01:47:07.737Z,28.90
2018-02-20T01:49:38.162Z,28.90
2018-02-20T01:52:08.574Z,28.90
2018-02-20T01:54:38.993Z,29.00
2018-02-20T01:57:10.191Z,29.10
2018-02-20T01:59:40.886Z,29.10
2018-02-20T02:02:11.685Z,29.20
2018-02-20T02:04:45.079Z,29.30
2018-02-20T02:07:15.526Z,29.40
2018-02-20T02:09:46.669Z,29.40
2018-02-20T02:12:17.840Z,29.40
2018-02-20T02:14:48.291Z,29.40
2018-02-20T02:17:19.815Z,29.50
2018-02-20T02:19:50.247Z,29.60
2018-02-20T02:22:20.708Z,29.60
2018-02-20T02:24:51.231Z,29.70
2018-02-20T02:27:22.794Z,29.70
2018-02-20T02:29:54.418Z,29.80
2018-02-20T02:32:24.841Z,29.70
2018-02-20T02:34:55.569Z,29.80
2018-02-20T02:37:26.064Z,29.80
2018-02-20T02:39:57.271Z,29.80
2018-02-20T02:42:27.628Z,29.80
2018-02-20T02:44:59.916Z,29.90
2018-02-20T02:47:30.465Z,29.90
2018-02-20T02:50:00.864Z,30.00
2018-02-20T02:52:32.174Z,30.20
2018-02-20T02:55:02.632Z,30.10
2018-02-20T02:57:33.831Z,30.30
2018-02-20T03:00:04.566Z,30.30
2018-02-20T03:02:34.955Z,30.40
2018-02-20T03:05:06.385Z,30.50
2018-02-20T03:07:37.597Z,30.60
2018-02-20T03:10:08.113Z,30.60
2018-02-20T03:12:38.565Z,30.70
2018-02-20T03:15:09.026Z,30.80
2018-02-20T03:17:40.402Z,30.80
2018-02-20T03:20:10.841Z,30.90
2018-02-20T03:22:41.242Z,30.90
2018-02-20T03:25:11.697Z,31.00
2018-02-20T03:27:42.079Z,31.00
2018-02-20T03:30:14.585Z,31.10
2018-02-20T03:32:45.481Z,31.10
2018-02-20T03:35:17.797Z,31.10
2018-02-20T03:37:48.194Z,31.10
2018-02-20T03:40:18.700Z,31.10
2018-02-20T03:42:49.878Z,31.10
2018-02-20T03:45:20.284Z,31.10
2018-02-20T03:47:53.483Z,31.20
2018-02-20T03:50:23.943Z,31.20
2018-02-20T03:52:54.429Z,31.20
2018-02-20T03:55:25.585Z,31.20
2018-02-20T03:57:56.098Z,31.20
2018-02-20T04:00:27.273Z,31.30
2018-02-20T04:02:57.675Z,31.20
2018-02-20T04:05:29.184Z,31.50
2018-02-20T04:07:59.625Z,31.50
2018-02-20T04:10:30.894Z,31.70
2018-02-20T04:13:02.112Z,31.70
2018-02-20T04:15:32.507Z,31.70
2018-02-20T04:18:03.330Z,31.70
2018-02-20T04:20:33.758Z,31.80
2018-02-20T04:23:04.465Z,31.80
2018-02-20T04:25:35.683Z,31.90
2018-02-20T04:28:06.145Z,31.90
2018-02-20T04:30:36.588Z,32.00
2018-02-20T04:33:07.323Z,32.10
2018-02-20T04:35:37.952Z,32.10
2018-02-20T04:38:08.385Z,32.20
2018-02-20T04:40:38.783Z,32.20
2018-02-20T04:43:09.884Z,32.10
2018-02-20T04:45:40.850Z,32.10
2018-02-20T04:48:12.494Z,32.00
2018-02-20T04:50:42.877Z,32.00
2018-02-20T04:53:14.420Z,32.00
2018-02-20T04:55:44.858Z,32.00
2018-02-20T04:58:15.357Z,32.10
2018-02-20T05:00:45.827Z,32.10
2018-02-20T05:03:16.301Z,32.10
2018-02-20T05:05:47.989Z,32.20
2018-02-20T05:08:18.398Z,32.20
2018-02-20T05:10:48.899Z,32.20
2018-02-20T05:13:20.159Z,32.40
2018-02-20T05:15:51.632Z,32.40
2018-02-20T05:18:22.030Z,32.50
2018-02-20T05:20:53.201Z,32.60
2018-02-20T05:23:23.882Z,32.60
2018-02-20T05:25:54.324Z,32.70
2018-02-20T05:28:25.487Z,32.80
2018-02-20T05:30:55.887Z,32.80
2018-02-20T05:33:26.341Z,32.80
2018-02-20T05:35:57.031Z,32.70
2018-02-20T05:38:27.367Z,32.80
2018-02-20T05:40:57.917Z,32.80
2018-02-20T05:43:29.137Z,32.90
2018-02-20T05:45:59.583Z,32.90
2018-02-20T05:48:30.797Z,32.90
2018-02-20T05:51:01.169Z,32.90
2018-02-20T05:53:31.791Z,32.90
2018-02-20T05:56:03.001Z,33.00
2018-02-20T05:58:33.469Z,33.00
2018-02-20T06:01:03.833Z,33.00
2018-02-20T06:03:34.382Z,33.00
2018-02-20T06:06:04.853Z,33.00
2018-02-20T06:08:35.302Z,33.10
2018-02-20T06:11:06.055Z,33.10
2018-02-20T06:13:36.465Z,33.10
2018-02-20T06:16:06.926Z,33.20
2018-02-20T06:18:38.375Z,33.20
2018-02-20T06:21:08.794Z,33.30
2018-02-20T06:23:39.483Z,33.40
2018-02-20T06:26:09.903Z,33.40
2018-02-20T06:28:40.757Z,33.40
2018-02-20T06:31:11.200Z,33.30
2018-02-20T06:33:41.665Z,33.40
2018-02-20T06:36:12.095Z,33.40
2018-02-20T06:38:42.464Z,33.40
2018-02-20T06:41:13.382Z,33.40
2018-02-20T06:43:44.558Z,33.50
2018-02-20T06:46:14.988Z,33.40
2018-02-20T06:48:45.417Z,33.50
2018-02-20T06:51:15.830Z,33.40
2018-02-20T06:53:46.614Z,33.40
2018-02-20T06:56:17.038Z,33.30
2018-02-20T06:58:47.733Z,33.20
2018-02-20T07:01:18.112Z,33.10
2018-02-20T07:03:49.450Z,33.00
2018-02-20T07:06:20.736Z,32.80
2018-02-20T07:08:51.183Z,32.90
2018-02-20T07:11:21.747Z,32.70
2018-02-20T07:13:52.209Z,32.60
2018-02-20T07:16:22.647Z,32.50
2018-02-20T07:18:53.108Z,32.40
2018-02-20T07:21:23.517Z,32.30
2018-02-20T07:23:53.906Z,32.30
2018-02-20T07:26:26.033Z,32.30
2018-02-20T07:28:57.694Z,32.30
2018-02-20T07:31:28.102Z,32.40
2018-02-20T07:33:58.501Z,32.40
2018-02-20T07:36:28.922Z,32.40
2018-02-20T07:39:00.248Z,32.50
2018-02-20T07:41:32.122Z,32.50
2018-02-20T07:44:02.515Z,32.50
2018-02-20T07:46:33.140Z,32.40
2018-02-20T07:49:04.278Z,32.30
2018-02-20T07:51:34.678Z,32.30
2018-02-20T07:54:05.069Z,32.20
2018-02-20T07:56:35.532Z,32.10
2018-02-20T07:59:07.092Z,32.10
2018-02-20T08:01:38.592Z,32.00
2018-02-20T08:04:09.820Z,31.70
2018-02-20T08:06:40.242Z,31.70
2018-02-20T08:09:10.731Z,31.70
2018-02-20T08:11:41.348Z,31.70
2018-02-20T08:14:11.730Z,31.70
2018-02-20T08:16:42.427Z,31.70
2018-02-20T08:19:12.899Z,31.70
2018-02-20T08:21:44.195Z,31.80
2018-02-20T08:24:14.939Z,31.80
2018-02-20T08:26:45.389Z,31.90
2018-02-20T08:29:16.085Z,32.00
2018-02-20T08:31:46.850Z,32.10
2018-02-20T08:34:17.306Z,32.10
2018-02-20T08:36:48.538Z,32.30
2018-02-20T08:39:18.997Z,32.30
2018-02-20T08:41:49.695Z,32.30
2018-02-20T08:44:20.054Z,32.30
2018-02-20T08:46:50.666Z,32.30
2018-02-20T08:49:21.777Z,32.30
2018-02-20T08:51:52.542Z,32.30
2018-02-20T08:54:23.725Z,32.30
2018-02-20T08:56:54.132Z,32.30
2018-02-20T08:59:25.017Z,32.30
2018-02-20T09:01:55.449Z,32.20
2018-02-20T09:04:26.074Z,32.10
2018-02-20T09:06:56.451Z,32.00
2018-02-20T09:09:26.884Z,31.90
2018-02-20T09:11:57.309Z,31.90
2018-02-20T09:14:27.741Z,31.80
2018-02-20T09:16:58.440Z,31.80
2018-02-20T09:19:29.613Z,31.80
2018-02-20T09:22:00.026Z,31.80
2018-02-20T09:24:30.531Z,31.80
2018-02-20T09:27:01.116Z,31.90
2018-02-20T09:29:31.918Z,31.90
2018-02-20T09:32:03.111Z,32.00
2018-02-20T09:34:33.958Z,32.00
2018-02-20T09:37:04.316Z,32.00
2018-02-20T09:39:35.542Z,32.10
2018-02-20T09:42:05.962Z,32.10
2018-02-20T09:44:36.428Z,32.10
2018-02-20T09:47:07.370Z,32.10
2018-02-20T09:49:37.849Z,32.10
2018-02-20T09:52:08.254Z,32.10
2018-02-20T09:54:38.722Z,32.10
2018-02-20T09:57:09.193Z,32.10
2018-02-20T09:59:39.766Z,32.10
2018-02-20T10:02:10.238Z,32.00
2018-02-20T10:04:41.142Z,31.90
2018-02-20T10:07:11.602Z,31.80
2018-02-20T10:09:42.055Z,31.80
2018-02-20T10:12:12.437Z,31.80
2018-02-20T10:14:44.565Z,31.70
2018-02-20T10:17:16.585Z,31.70
2018-02-20T10:19:47.071Z,31.70
2018-02-20T10:22:18.451Z,31.60
2018-02-20T10:24:49.631Z,31.60
2018-02-20T10:27:20.176Z,31.50
2018-02-20T10:29:51.491Z,31.50
2018-02-20T10:32:21.936Z,31.50
2018-02-20T10:34:52.659Z,31.50
2018-02-20T10:37:23.056Z,31.50
2018-02-20T10:39:54.253Z,31.40
2018-02-20T10:42:25.359Z,31.40
2018-02-20T10:44:56.181Z,31.40
2018-02-20T10:47:27.422Z,31.30
2018-02-20T10:49:58.595Z,31.30
2018-02-20T10:52:31.149Z,31.30
2018-02-20T10:55:02.415Z,31.30
2018-02-20T10:57:32.938Z,31.30
2018-02-20T11:00:03.277Z,31.30
2018-02-20T11:02:34.707Z,31.30
2018-02-20T11:05:05.322Z,31.30
2018-02-20T11:07:37.578Z,31.30
2018-02-20T11:10:08.042Z,31.30
2018-02-20T11:12:38.480Z,31.30
2018-02-20T11:15:08.834Z,31.30
2018-02-20T11:17:39.671Z,31.30
2018-02-20T11:20:10.509Z,31.30
2018-02-20T11:22:41.299Z,31.20
2018-02-20T11:25:11.966Z,31.20
2018-02-20T11:27:42.377Z,31.20
2018-02-20T11:30:12.841Z,31.20
2018-02-20T11:32:43.239Z,31.20
2018-02-20T11:35:13.890Z,31.10
2018-02-20T11:37:44.247Z,31.10
2018-02-20T11:40:15.454Z,30.90
2018-02-20T11:42:45.761Z,30.90
2018-02-20T11:45:17.061Z,30.80
2018-02-20T11:47:48.242Z,30.70
2018-02-20T11:50:18.654Z,30.70
2018-02-20T11:52:50.105Z,30.70
2018-02-20T11:55:20.459Z,30.60
2018-02-20T11:57:51.377Z,30.50
2018-02-20T12:00:23.450Z,30.50
2018-02-20T12:02:53.788Z,30.40
2018-02-20T12:05:25.450Z,30.30
2018-02-20T12:07:55.909Z,30.30
2018-02-20T12:10:27.933Z,30.10
2018-02-20T12:13:00.040Z,30.10
2018-02-20T12:15:31.269Z,30.00
2018-02-20T12:18:01.695Z,30.00
2018-02-20T12:20:32.116Z,29.90
2018-02-20T12:23:03.080Z,29.90
2018-02-20T12:25:34.344Z,29.90
2018-02-20T12:28:04.797Z,29.80
2018-02-20T12:30:36.250Z,29.80
2018-02-20T12:33:06.679Z,29.70
2018-02-20T12:35:37.595Z,29.70
2018-02-20T12:38:08.113Z,29.70
2018-02-20T12:40:41.389Z,29.60
2018-02-20T12:43:12.740Z,29.60
2018-02-20T12:45:44.304Z,29.60
2018-02-20T12:48:15.829Z,29.50
2018-02-20T12:50:47.542Z,29.50
2018-02-20T12:53:18.281Z,29.50
2018-02-20T12:55:48.736Z,29.50
2018-02-20T12:58:19.322Z,29.40
2018-02-20T13:00:50.125Z,29.40
2018-02-20T13:03:21.005Z,29.40
2018-02-20T13:05:51.944Z,29.40
2018-02-20T13:08:22.588Z,29.40
2018-02-20T13:10:54.062Z,29.50
2018-02-20T13:13:25.085Z,29.50
2018-02-20T13:15:55.561Z,29.60
2018-02-20T13:18:26.918Z,29.70
2018-02-20T13:20:58.327Z,29.70
2018-02-20T13:23:29.921Z,29.70
2018-02-20T13:26:00.690Z,29.70
2018-02-20T13:28:31.409Z,29.60
2018-02-20T13:31:02.172Z,29.50
2018-02-20T13:33:32.758Z,29.30
2018-02-20T13:36:03.502Z,29.10
2018-02-20T13:38:34.032Z,29.00
2018-02-20T13:41:04.911Z,29.00
2018-02-20T13:43:35.826Z,28.80
2018-02-20T13:46:06.334Z,28.50
2018-02-20T13:48:37.691Z,28.30
2018-02-20T13:51:09.174Z,28.20
2018-02-20T13:53:40.182Z,28.10
2018-02-20T13:56:11.516Z,27.80
2018-02-20T13:58:42.127Z,27.80
2018-02-20T14:01:13.444Z,27.60
2018-02-20T14:03:44.427Z,27.60
2018-02-20T14:06:15.123Z,27.50
2018-02-20T14:08:45.557Z,27.20
2018-02-20T14:11:18.574Z,27.00
2018-02-20T14:13:50.242Z,27.00
2018-02-20T14:16:21.098Z,27.10
2018-02-20T14:18:51.733Z,26.90
2018-02-20T14:21:22.289Z,26.90
2018-02-20T14:23:55.515Z,26.80
2018-02-20T14:26:27.273Z,26.80
2018-02-20T14:28:57.935Z,26.90
2018-02-20T14:31:29.484Z,27.00
2018-02-20T14:34:00.191Z,27.00
2018-02-20T14:36:31.116Z,26.90
2018-02-20T14:39:02.499Z,26.70
2018-02-20T14:41:34.052Z,26.80
2018-02-20T14:44:04.860Z,26.80
2018-02-20T14:46:36.886Z,26.90
2018-02-20T14:49:07.611Z,26.90
2018-02-20T14:51:38.358Z,26.90
2018-02-20T14:54:09.228Z,26.80
2018-02-20T14:56:40.673Z,26.50
2018-02-20T14:59:13.265Z,26.50
2018-02-20T15:01:43.732Z,26.40
2018-02-20T15:04:14.708Z,26.50
2018-02-20T15:06:45.914Z,26.80
2018-02-20T15:09:16.590Z,26.80
2018-02-20T15:11:48.445Z,27.00
2018-02-20T15:14:20.231Z,27.00
2018-02-20T15:16:51.050Z,27.00
2018-02-20T15:19:22.426Z,27.00
2018-02-20T15:21:52.854Z,27.00
2018-02-20T15:24:24.007Z,27.00
2018-02-20T15:26:55.125Z,27.00
2018-02-20T15:29:26.293Z,27.00
2018-02-20T15:31:56.881Z,27.00
2018-02-20T15:34:28.242Z,27.00
2018-02-20T15:36:59.042Z,27.00
2018-02-20T15:39:29.815Z,26.90
2018-02-20T15:42:00.979Z,26.90
2018-02-20T15:44:32.037Z,27.00
2018-02-20T15:47:03.094Z,27.00
2018-02-20T15:49:34.839Z,27.20
2018-02-20T15:52:06.409Z,27.20
2018-02-20T15:54:37.494Z,27.30
2018-02-20T15:57:09.783Z,27.30
2018-02-20T15:59:41.733Z,27.30
2018-02-20T16:02:12.409Z,27.30
2018-02-20T16:04:43.231Z,27.30
2018-02-20T16:07:13.877Z,27.30
2018-02-20T16:09:44.546Z,27.30
2018-02-20T16:12:16.060Z,27.30
2018-02-20T16:14:47.970Z,27.30
2018-02-20T16:17:19.119Z,27.30
2018-02-20T16:19:49.588Z,27.20
2018-02-20T16:22:20.506Z,27.10
2018-02-20T16:24:52.098Z,27.10
2018-02-20T16:27:23.005Z,27.00
2018-02-20T16:29:54.555Z,26.90
2018-02-20T16:32:25.245Z,26.90
2018-02-20T16:34:56.835Z,26.90
2018-02-20T16:37:27.621Z,26.90
2018-02-20T16:39:59.354Z,27.00
2018-02-20T16:42:30.373Z,27.00
2018-02-20T16:45:01.158Z,27.00
2018-02-20T16:47:32.868Z,27.00
2018-02-20T16:50:03.649Z,26.90
2018-02-20T16:52:35.203Z,26.90
2018-02-20T16:55:07.008Z,26.90
2018-02-20T16:57:37.654Z,26.90
2018-02-20T17:00:08.575Z,26.80
2018-02-20T17:02:39.937Z,26.70
2018-02-20T17:05:10.376Z,26.60
2018-02-20T17:07:40.821Z,26.60
2018-02-20T17:10:11.430Z,26.60
2018-02-20T17:12:42.986Z,26.60
2018-02-20T17:15:13.522Z,26.60
2018-02-20T17:17:44.229Z,26.50
2018-02-20T17:20:15.698Z,26.50
2018-02-20T17:22:46.118Z,26.50
2018-02-20T17:25:16.553Z,26.50
2018-02-20T17:27:46.989Z,26.50
2018-02-20T17:30:17.686Z,26.50
2018-02-20T17:32:48.044Z,26.40
2018-02-20T17:35:18.475Z,26.30
2018-02-20T17:37:50.419Z,26.40
2018-02-20T17:40:20.859Z,26.40
2018-02-20T17:42:51.664Z,26.50
2018-02-20T17:45:22.122Z,26.60
2018-02-20T17:47:52.862Z,26.60
2018-02-20T17:50:24.075Z,26.60
2018-02-20T17:52:54.438Z,26.60
2018-02-20T17:55:25.589Z,26.60
2018-02-20T17:57:56.734Z,26.60
2018-02-20T18:00:29.480Z,26.50
2018-02-20T18:02:59.931Z,26.50
2018-02-20T18:05:30.695Z,26.50
2018-02-20T18:08:01.097Z,26.50
2018-02-20T18:10:32.229Z,26.30
2018-02-20T18:13:03.028Z,26.30
2018-02-20T18:15:33.458Z,26.30
2018-02-20T18:18:05.558Z,26.30
2018-02-20T18:20:35.935Z,26.30
2018-02-20T18:23:06.347Z,26.20
2018-02-20T18:25:36.783Z,26.20
2018-02-20T18:28:07.185Z,26.20
2018-02-20T18:30:38.711Z,26.10
2018-02-20T18:33:09.376Z,26.10
2018-02-20T18:35:39.919Z,26.10
2018-02-20T18:38:10.310Z,26.10
2018-02-20T18:40:41.565Z,26.10
2018-02-20T18:43:13.112Z,26.10
2018-02-20T18:45:44.290Z,26.00
2018-02-20T18:48:15.053Z,26.00
2018-02-20T18:50:45.453Z,26.00
2018-02-20T18:53:17.415Z,26.00
2018-02-20T18:55:47.852Z,26.10
2018-02-20T18:58:18.280Z,26.10
2018-02-20T19:00:49.070Z,26.00
2018-02-20T19:03:20.535Z,26.00
2018-02-20T19:05:51.218Z,26.10
2018-02-20T19:08:21.613Z,26.00
2018-02-20T19:10:52.043Z,26.00
2018-02-20T19:13:22.408Z,26.00
2018-02-20T19:15:52.874Z,26.00
2018-02-20T19:18:23.546Z,26.00
2018-02-20T19:20:53.957Z,26.00
2018-02-20T19:23:24.402Z,25.90
2018-02-20T19:25:54.801Z,25.90
2018-02-20T19:28:25.201Z,25.90
2018-02-20T19:30:57.255Z,25.90
2018-02-20T19:33:28.440Z,25.90
2018-02-20T19:35:59.082Z,25.90
2018-02-20T19:38:29.443Z,25.90
2018-02-20T19:40:59.822Z,25.90
2018-02-20T19:43:30.242Z,25.90
2018-02-20T19:46:00.693Z,25.90
2018-02-20T19:48:31.499Z,25.90
2018-02-20T19:51:01.906Z,26.00
2018-02-20T19:53:33.101Z,26.10
2018-02-20T19:56:03.535Z,26.00
2018-02-20T19:58:33.874Z,26.10
2018-02-20T20:01:04.337Z,26.10
2018-02-20T20:03:35.081Z,26.10
2018-02-20T20:06:05.801Z,26.10
2018-02-20T20:08:36.213Z,26.10
2018-02-20T20:11:07.467Z,26.10
2018-02-20T20:13:38.657Z,26.00
2018-02-20T20:16:09.084Z,26.00
2018-02-20T20:18:39.634Z,26.00
2018-02-20T20:21:10.013Z,25.90
2018-02-20T20:23:40.480Z,25.90
2018-02-20T20:26:10.859Z,25.90
2018-02-20T20:28:41.198Z,25.90
2018-02-20T20:31:11.678Z,26.00
2018-02-20T20:33:42.915Z,26.00
2018-02-20T20:36:13.606Z,26.00
2018-02-20T20:38:44.095Z,26.00
2018-02-20T20:41:15.233Z,26.00
2018-02-20T20:43:46.450Z,26.00
2018-02-20T20:46:16.929Z,26.00
2018-02-20T20:48:47.625Z,26.00
2018-02-20T20:51:18.089Z,26.00
2018-02-20T20:53:53.260Z,26.00
2018-02-20T20:56:24.615Z,26.00
2018-02-20T20:58:55.007Z,26.00
2018-02-20T21:01:25.354Z,26.00
2018-02-20T21:03:56.969Z,26.00
2018-02-20T21:06:28.511Z,26.10
2018-02-20T21:08:59.664Z,26.10
2018-02-20T21:11:30.882Z,26.00
2018-02-20T21:14:01.295Z,26.00
2018-02-20T21:16:31.741Z,26.00
2018-02-20T21:19:03.308Z,26.00
2018-02-20T21:21:35.394Z,26.00
2018-02-20T21:24:09.005Z,26.00
2018-02-20T21:26:39.466Z,26.10
2018-02-20T21:29:09.946Z,26.10
2018-02-20T21:31:40.303Z,26.00
2018-02-20T21:34:10.715Z,26.00
2018-02-20T21:36:43.066Z,26.00
2018-02-20T21:39:13.475Z,26.00
2018-02-20T21:41:44.634Z,26.10
2018-02-20T21:44:15.774Z,26.00
2018-02-20T21:46:46.149Z,26.00
2018-02-20T21:49:16.992Z,26.00
2018-02-20T21:51:47.370Z,26.00
2018-02-20T21:54:18.109Z,26.00
2018-02-20T21:56:48.588Z,26.00
2018-02-20T21:59:19.054Z,26.00
2018-02-20T22:01:49.434Z,26.00
2018-02-20T22:04:20.205Z,26.00
2018-02-20T22:06:51.699Z,25.90
2018-02-20T22:09:22.161Z,25.90
2018-02-20T22:11:52.637Z,26.00
2018-02-20T22:14:23.139Z,26.00
2018-02-20T22:16:54.299Z,25.90
2018-02-20T22:19:25.029Z,25.90
2018-02-20T22:21:56.215Z,26.00
2018-02-20T22:24:26.978Z,25.90
2018-02-20T22:26:58.182Z,25.90
2018-02-20T22:29:28.580Z,25.90
2018-02-20T22:31:59.019Z,25.90
2018-02-20T22:34:30.367Z,25.90
2018-02-20T22:37:01.173Z,25.90
2018-02-20T22:39:33.011Z,25.90
2018-02-20T22:42:03.722Z,25.90
2018-02-20T22:44:34.157Z,25.90
2018-02-20T22:47:04.618Z,25.90
2018-02-20T22:49:35.765Z,25.90
2018-02-20T22:52:06.883Z,25.90
2018-02-20T22:54:37.633Z,25.80
2018-02-20T22:57:08.850Z,25.80
2018-02-20T22:59:39.313Z,25.80
2018-02-20T23:02:10.461Z,25.80
2018-02-20T23:04:41.906Z,25.80
2018-02-20T23:07:14.252Z,25.80
2018-02-20T23:09:45.211Z,25.70
2018-02-20T23:12:16.795Z,25.30
2018-02-20T23:14:47.194Z,25.70
2018-02-20T23:17:18.438Z,25.80
2018-02-20T23:19:49.586Z,25.70
2018-02-20T23:22:21.204Z,25.70
2018-02-20T23:24:52.877Z,25.70
2018-02-20T23:27:23.236Z,25.70
2018-02-20T23:29:53.930Z,25.70
2018-02-20T23:32:24.379Z,25.70
2018-02-20T23:34:55.538Z,25.60
2018-02-20T23:37:27.947Z,25.60
2018-02-20T23:39:58.359Z,25.50
2018-02-20T23:42:28.924Z,25.60
2018-02-20T23:44:59.329Z,25.60
2018-02-20T23:47:29.754Z,25.60
2018-02-20T23:50:00.127Z,25.60
2018-02-20T23:52:31.308Z,25.60
2018-02-20T23:55:02.146Z,25.60
2018-02-20T23:57:34.781Z,25.60
